createdAt,value
2018-12-29T00:00:56.704Z,3.28
2018-12-29T00:06:00.134Z,3.29
2018-12-29T00:11:03.570Z,3.29
2018-12-29T00:16:06.997Z,3.30
2018-12-29T00:21:10.450Z,3.32
2018-12-29T00:26:13.867Z,3.33
2018-12-29T00:31:17.320Z,3.34
2018-12-29T00:36:21.623Z,3.36
2018-12-29T00:41:25.161Z,3.39
2018-12-29T00:46:28.637Z,3.40
2018-12-29T00:51:32.080Z,3.44
2018-12-29T00:56:35.507Z,3.44
2018-12-29T01:01:39.006Z,3.46
2018-12-29T01:06:42.432Z,3.50
2018-12-29T01:11:46.174Z,3.52
2018-12-29T01:16:49.597Z,3.54
2018-12-29T01:21:53.018Z,3.54
2018-12-29T01:26:56.513Z,3.57
2018-12-29T01:31:59.933Z,3.58
2018-12-29T01:37:03.375Z,3.59
2018-12-29T01:42:06.800Z,3.62
2018-12-29T01:47:13.154Z,3.62
2018-12-29T01:52:16.595Z,3.64
2018-12-29T01:57:20.035Z,3.63
2018-12-29T02:02:23.503Z,3.68
2018-12-29T02:07:26.941Z,3.67
2018-12-29T02:12:30.443Z,3.67
2018-12-29T02:17:33.976Z,3.71
2018-12-29T02:22:37.394Z,3.70
2018-12-29T02:27:40.823Z,3.73
2018-12-29T02:32:44.257Z,3.74
2018-12-29T02:37:47.686Z,3.77
2018-12-29T02:42:51.131Z,3.77
2018-12-29T02:47:54.551Z,3.82
2018-12-29T02:52:58.184Z,3.78
2018-12-29T02:58:01.615Z,3.80
2018-12-29T03:03:05.060Z,3.82
2018-12-29T03:08:08.507Z,3.82
2018-12-29T03:13:11.953Z,3.81
2018-12-29T03:18:15.405Z,3.81
2018-12-29T03:23:18.836Z,3.78
2018-12-29T03:28:22.316Z,3.80
2018-12-29T03:33:25.749Z,3.81
2018-12-29T03:38:29.177Z,3.88
2018-12-29T03:43:32.603Z,3.90
2018-12-29T03:48:36.040Z,3.90
2018-12-29T03:53:39.478Z,3.91
2018-12-29T03:58:42.913Z,3.94
2018-12-29T04:03:46.358Z,3.89
2018-12-29T04:09:28.034Z,3.93
2018-12-29T04:14:31.475Z,3.92
2018-12-29T04:19:34.911Z,3.95
2018-12-29T04:24:38.383Z,3.94
2018-12-29T04:29:41.813Z,3.94
2018-12-29T04:34:45.242Z,3.97
2018-12-29T04:39:48.684Z,3.99
2018-12-29T04:44:52.269Z,4.02
2018-12-29T04:49:55.782Z,4.05
2018-12-29T04:54:59.333Z,4.05
2018-12-29T05:00:03.218Z,4.05
2018-12-29T05:05:06.787Z,4.10
2018-12-29T05:10:10.206Z,4.10
2018-12-29T05:15:13.636Z,4.10
2018-12-29T05:20:17.062Z,4.11
2018-12-29T05:25:20.528Z,4.09
2018-12-29T05:30:23.959Z,4.11
2018-12-29T05:35:27.407Z,4.13
2018-12-29T05:40:30.838Z,4.16
2018-12-29T05:45:34.264Z,4.17
2018-12-29T05:50:37.743Z,4.19
2018-12-29T05:55:41.151Z,4.17
2018-12-29T06:00:44.688Z,4.20
2018-12-29T06:05:48.153Z,4.23
2018-12-29T06:10:51.599Z,4.22
2018-12-29T06:15:55.016Z,4.25
2018-12-29T06:20:58.514Z,4.23
2018-12-29T06:26:01.961Z,4.26
2018-12-29T06:31:05.424Z,4.26
2018-12-29T06:36:08.844Z,4.32
2018-12-29T06:41:12.287Z,4.31
2018-12-29T06:46:15.715Z,4.31
2018-12-29T06:51:19.145Z,4.30
2018-12-29T06:56:22.571Z,4.35
2018-12-29T07:01:26.016Z,4.31
2018-12-29T07:06:29.442Z,4.35
2018-12-29T07:11:32.886Z,4.40
2018-12-29T07:16:42.208Z,4.42
2018-12-29T07:21:41.482Z,4.42
2018-12-29T07:26:44.901Z,4.43
2018-12-29T07:31:48.364Z,4.43
2018-12-29T07:36:51.835Z,4.45
2018-12-29T07:41:55.273Z,4.49
2018-12-29T07:46:58.723Z,4.50
2018-12-29T07:52:02.130Z,4.51
2018-12-29T07:57:05.595Z,4.54
2018-12-29T08:02:09.032Z,4.57
2018-12-29T08:07:12.481Z,4.59
2018-12-29T08:12:15.923Z,4.62
2018-12-29T08:17:19.343Z,4.64
2018-12-29T08:22:24.104Z,4.69
2018-12-29T08:27:27.724Z,4.70
2018-12-29T08:32:31.160Z,4.72
2018-12-29T08:37:34.605Z,4.79
2018-12-29T08:42:38.033Z,4.81
2018-12-29T08:47:41.511Z,4.85
2018-12-29T08:52:44.936Z,4.89
2018-12-29T08:57:48.384Z,4.92
2018-12-29T09:02:51.807Z,4.92
2018-12-29T09:07:55.263Z,4.97
2018-12-29T09:12:58.707Z,4.99
2018-12-29T09:18:02.152Z,5.02
2018-12-29T09:23:05.681Z,5.03
2018-12-29T09:28:09.117Z,5.07
2018-12-29T09:33:12.603Z,5.11
2018-12-29T09:38:16.001Z,5.16
2018-12-29T09:43:19.417Z,5.22
2018-12-29T09:48:22.864Z,5.25
2018-12-29T09:53:26.294Z,5.29
2018-12-29T09:58:29.736Z,5.31
2018-12-29T10:03:33.158Z,5.37
2018-12-29T10:08:36.594Z,5.43
2018-12-29T10:13:40.026Z,5.45
2018-12-29T10:18:43.455Z,5.49
2018-12-29T10:23:46.913Z,5.54
2018-12-29T10:28:50.345Z,5.57
2018-12-29T10:33:55.295Z,5.61
2018-12-29T10:38:58.881Z,5.68
2018-12-29T10:44:02.308Z,5.79
2018-12-29T10:49:05.740Z,5.80
2018-12-29T10:54:09.179Z,5.89
2018-12-29T10:59:12.599Z,5.96
2018-12-29T11:04:16.196Z,5.96
2018-12-29T11:09:19.598Z,6.04
2018-12-29T11:14:23.037Z,6.05
2018-12-29T11:19:26.470Z,6.06
2018-12-29T11:24:29.903Z,6.07
2018-12-29T11:29:33.336Z,6.08
2018-12-29T11:34:36.768Z,6.11
2018-12-29T11:39:40.191Z,6.13
2018-12-29T11:44:43.642Z,6.12
2018-12-29T11:49:47.082Z,6.16
2018-12-29T11:54:50.517Z,6.19
2018-12-29T11:59:53.933Z,6.21
2018-12-29T12:04:57.360Z,6.19
2018-12-29T12:10:00.799Z,6.25
2018-12-29T12:15:05.458Z,6.30
2018-12-29T12:20:08.876Z,6.36
2018-12-29T12:25:13.778Z,6.43
2018-12-29T12:30:17.656Z,6.45
2018-12-29T12:35:21.729Z,6.48
2018-12-29T12:40:25.160Z,6.48
2018-12-29T12:45:28.821Z,6.51
2018-12-29T12:50:32.219Z,6.53
2018-12-29T12:55:35.663Z,6.54
2018-12-29T13:00:39.377Z,6.57
2018-12-29T13:05:43.097Z,6.55
2018-12-29T13:10:46.542Z,6.57
2018-12-29T13:15:49.955Z,6.60
2018-12-29T13:20:53.402Z,6.61
2018-12-29T13:25:56.854Z,6.61
2018-12-29T13:31:00.289Z,6.65
2018-12-29T13:36:04.604Z,6.68
2018-12-29T13:41:08.048Z,6.74
2018-12-29T13:46:11.483Z,6.73
2018-12-29T13:51:14.923Z,6.74
2018-12-29T13:56:18.338Z,6.72
2018-12-29T14:01:21.785Z,6.77
2018-12-29T14:06:25.213Z,6.79
2018-12-29T14:11:29.047Z,6.87
2018-12-29T14:16:32.501Z,6.88
2018-12-29T14:21:35.953Z,6.90
2018-12-29T14:26:39.414Z,6.98
2018-12-29T14:31:42.941Z,7.00
2018-12-29T14:36:46.443Z,6.98
2018-12-29T14:41:50.598Z,6.96
2018-12-29T14:46:54.102Z,6.89
2018-12-29T14:51:57.541Z,6.90
2018-12-29T14:57:01.015Z,6.92
2018-12-29T15:02:04.447Z,6.93
2018-12-29T15:07:07.877Z,6.94
2018-12-29T15:12:11.313Z,6.90
2018-12-29T15:17:14.795Z,6.90
2018-12-29T15:22:18.285Z,6.83
2018-12-29T15:27:22.194Z,6.81
2018-12-29T15:32:25.638Z,6.82
2018-12-29T15:37:29.160Z,6.76
2018-12-29T15:42:32.600Z,6.74
2018-12-29T15:47:36.034Z,6.69
2018-12-29T15:52:39.506Z,6.64
2018-12-29T15:57:42.931Z,6.60
2018-12-29T16:02:46.449Z,6.61
2018-12-29T16:07:49.893Z,6.56
2018-12-29T16:12:53.329Z,6.57
2018-12-29T16:17:57.323Z,6.51
2018-12-29T16:23:00.801Z,6.55
2018-12-29T16:28:04.218Z,6.56
2018-12-29T16:33:07.937Z,6.53
2018-12-29T16:38:11.382Z,6.54
2018-12-29T16:43:14.811Z,6.54
2018-12-29T16:48:18.247Z,6.52
2018-12-29T16:53:28.898Z,6.57
2018-12-29T16:58:26.842Z,6.55
2018-12-29T17:03:30.545Z,6.57
2018-12-29T17:08:33.992Z,6.60
2018-12-29T17:13:37.449Z,6.64
2018-12-29T17:18:40.876Z,6.66
2018-12-29T17:23:44.544Z,6.72
2018-12-29T17:28:48.002Z,6.68
2018-12-29T17:33:51.689Z,6.70
2018-12-29T17:38:55.180Z,6.73
2018-12-29T17:43:58.896Z,6.75
2018-12-29T17:49:02.664Z,6.81
2018-12-29T17:54:06.136Z,6.85
2018-12-29T17:59:09.762Z,6.84
2018-12-29T18:04:13.179Z,6.87
2018-12-29T18:09:16.606Z,6.90
2018-12-29T18:14:20.043Z,6.91
2018-12-29T18:19:30.341Z,6.94
2018-12-29T18:24:28.638Z,6.96
2018-12-29T18:29:32.071Z,6.97
2018-12-29T18:34:35.516Z,6.97
2018-12-29T18:39:38.950Z,6.99
2018-12-29T18:44:42.368Z,7.03
2018-12-29T18:49:45.825Z,7.07
2018-12-29T18:54:49.278Z,7.11
2018-12-29T18:59:52.698Z,7.14
2018-12-29T19:04:56.986Z,7.15
2018-12-29T19:10:01.247Z,7.18
2018-12-29T19:15:06.092Z,7.26
2018-12-29T19:20:09.995Z,7.30
2018-12-29T19:25:13.434Z,7.34
2018-12-29T19:30:16.914Z,7.39
2018-12-29T19:35:20.744Z,7.44
2018-12-29T19:40:24.180Z,7.50
2018-12-29T19:45:28.081Z,7.54
2018-12-29T19:50:31.802Z,7.59
2018-12-29T19:55:35.230Z,7.63
2018-12-29T20:00:38.678Z,7.72
2018-12-29T20:05:42.595Z,7.78
2018-12-29T20:10:46.032Z,7.82
2018-12-29T20:15:49.450Z,7.88
2018-12-29T20:20:52.907Z,7.91
2018-12-29T20:25:56.388Z,8.00
2018-12-29T20:30:59.830Z,8.07
2018-12-29T20:36:03.638Z,8.09
2018-12-29T20:41:07.179Z,8.20
2018-12-29T20:46:10.913Z,8.22
2018-12-29T20:51:14.341Z,8.20
2018-12-29T20:56:17.795Z,8.10
2018-12-29T21:01:21.229Z,8.05
2018-12-29T21:06:24.693Z,8.02
2018-12-29T21:11:28.134Z,7.97
2018-12-29T21:16:31.664Z,7.87
2018-12-29T21:21:35.104Z,7.81
2018-12-29T21:26:38.582Z,7.75
2018-12-29T21:31:42.053Z,7.72
2018-12-29T21:36:45.638Z,7.73
2018-12-29T21:41:49.425Z,7.65
2018-12-29T21:46:52.939Z,7.60
2018-12-29T21:51:56.404Z,7.52
2018-12-29T21:56:59.836Z,7.47
2018-12-29T22:02:03.268Z,7.38
2018-12-29T22:07:06.742Z,7.45
2018-12-29T22:12:10.570Z,7.50
2018-12-29T22:17:16.340Z,7.48
2018-12-29T22:22:19.747Z,7.49
2018-12-29T22:27:23.259Z,7.54
2018-12-29T22:32:26.809Z,7.63
2018-12-29T22:37:30.716Z,7.65
2018-12-29T22:42:34.279Z,7.66
2018-12-29T22:47:37.899Z,7.66
2018-12-29T22:52:41.480Z,7.62
2018-12-29T22:57:44.879Z,7.61
2018-12-29T23:02:48.461Z,7.59
2018-12-29T23:07:52.113Z,7.62
2018-12-29T23:12:55.585Z,7.67
2018-12-29T23:17:59.016Z,7.69
2018-12-29T23:23:06.614Z,7.67
2018-12-29T23:28:10.153Z,7.69
2018-12-29T23:33:13.593Z,7.72
2018-12-29T23:38:17.055Z,7.83
2018-12-29T23:43:20.495Z,7.82
2018-12-29T23:48:24.117Z,7.89
2018-12-29T23:53:27.717Z,7.92
2018-12-29T23:58:31.737Z,7.97
